createdAt,value
2023-03-25T00:03:51.126Z,4.72
2023-03-25T00:08:54.823Z,4.63
2023-03-25T00:13:58.454Z,4.71
2023-03-25T00:19:03.481Z,4.81
2023-03-25T00:24:07.502Z,4.83
2023-03-25T00:29:11.147Z,4.88
2023-03-25T00:34:16.042Z,4.89
2023-03-25T00:39:19.225Z,4.69
2023-03-25T00:44:22.857Z,4.68
2023-03-25T00:49:28.873Z,4.65
2023-03-25T00:54:34.408Z,4.72
2023-03-25T00:59:38.038Z,4.62
2023-03-25T01:04:45.770Z,4.64
2023-03-25T01:09:49.484Z,4.74
2023-03-25T01:14:52.935Z,4.87
2023-03-25T01:19:58.170Z,5.00
2023-03-25T01:25:02.104Z,4.98
2023-03-25T01:30:07.276Z,4.88
2023-03-25T01:35:12.427Z,4.89
2023-03-25T01:40:20.825Z,4.86
2023-03-25T01:45:27.681Z,4.86
2023-03-25T01:50:33.502Z,4.85
2023-03-25T01:55:40.303Z,4.85
2023-03-25T02:00:45.890Z,4.89
2023-03-25T02:05:57.263Z,4.93
2023-03-25T02:11:00.880Z,4.97
2023-03-25T02:16:21.747Z,5.02
2023-03-25T02:22:26.184Z,4.97
2023-03-25T02:27:46.182Z,4.99
2023-03-25T02:33:22.730Z,5.03
2023-03-25T02:38:40.647Z,5.07
2023-03-25T02:43:51.892Z,5.20
2023-03-25T02:49:00.393Z,5.48
2023-03-25T02:54:09.012Z,5.72
2023-03-25T02:59:15.428Z,5.79
2023-03-25T03:04:18.954Z,5.81
2023-03-25T03:09:32.878Z,5.91
2023-03-25T03:14:57.579Z,6.03
2023-03-25T03:20:06.809Z,6.03
2023-03-25T03:25:23.131Z,6.10
2023-03-25T03:30:32.740Z,6.13
2023-03-25T03:35:39.402Z,6.16
2023-03-25T03:40:49.038Z,6.30
2023-03-25T03:45:58.170Z,6.46
2023-03-25T03:51:07.999Z,6.55
2023-03-25T03:56:19.406Z,6.64
2023-03-25T04:01:30.783Z,6.64
2023-03-25T04:06:41.893Z,6.71
2023-03-25T04:11:51.853Z,6.88
2023-03-25T04:16:56.819Z,6.91
2023-03-25T04:22:00.440Z,6.89
2023-03-25T04:27:05.525Z,7.01
2023-03-25T04:32:12.145Z,7.16
2023-03-25T04:37:16.249Z,7.08
2023-03-25T04:42:21.216Z,7.07
2023-03-25T04:47:26.126Z,7.25
2023-03-25T04:52:29.566Z,7.41
2023-03-25T04:57:34.477Z,7.60
2023-03-25T05:02:38.172Z,7.92
2023-03-25T05:07:41.670Z,8.07
2023-03-25T05:12:46.611Z,8.30
2023-03-25T05:17:49.760Z,8.25
2023-03-25T05:22:53.748Z,8.20
2023-03-25T05:27:58.601Z,8.34
2023-03-25T05:38:05.889Z,8.41
2023-03-25T05:43:10.754Z,8.50
2023-03-25T05:48:14.043Z,8.84
2023-03-25T05:53:17.456Z,8.83
2023-03-25T05:58:22.279Z,8.72
2023-03-25T06:03:26.277Z,8.68
2023-03-25T06:08:31.674Z,8.56
2023-03-25T06:13:38.334Z,8.43
2023-03-25T06:18:41.835Z,8.49
2023-03-25T06:23:45.301Z,8.43
2023-03-25T06:28:50.165Z,8.34
2023-03-25T06:33:53.367Z,8.20
2023-03-25T06:38:58.549Z,8.27
2023-03-25T06:44:03.442Z,8.27
2023-03-25T06:49:06.720Z,8.17
2023-03-25T06:54:10.191Z,8.18
2023-03-25T06:59:15.069Z,8.17
2023-03-25T07:04:19.638Z,8.21
2023-03-25T07:09:23.153Z,8.18
2023-03-25T07:14:28.309Z,8.21
2023-03-25T07:19:50.632Z,8.16
2023-03-25T07:24:54.044Z,8.28
2023-03-25T07:30:04.911Z,8.45
2023-03-25T07:35:09.623Z,8.58
2023-03-25T07:40:13.986Z,8.69
2023-03-25T07:45:19.072Z,8.86
2023-03-25T07:50:26.012Z,9.01
2023-03-25T07:55:29.608Z,8.93
2023-03-25T08:00:34.902Z,8.84
2023-03-25T08:05:38.382Z,9.01
2023-03-25T08:10:44.236Z,9.25
2023-03-25T08:21:28.031Z,9.29
2023-03-25T08:26:32.090Z,9.40
2023-03-25T08:31:38.884Z,9.45
2023-03-25T08:36:42.449Z,9.56
2023-03-25T08:41:46.283Z,9.57
2023-03-25T08:47:27.190Z,9.90
2023-03-25T08:52:49.084Z,9.88
2023-03-25T08:57:52.562Z,10.18
2023-03-25T09:02:59.165Z,10.57
2023-03-25T09:08:04.322Z,11.21
2023-03-25T09:13:07.945Z,11.18
2023-03-25T09:18:12.882Z,11.08
2023-03-25T09:23:16.106Z,10.84
2023-03-25T09:28:37.904Z,10.79
2023-03-25T09:33:42.912Z,10.79
2023-03-25T09:38:46.812Z,10.62
2023-03-25T09:44:02.388Z,10.62
2023-03-25T09:49:11.129Z,10.66
2023-03-25T09:59:47.505Z,10.73
2023-03-25T10:05:21.472Z,10.71
2023-03-25T10:10:30.535Z,10.65
2023-03-25T10:15:41.457Z,10.79
2023-03-25T10:21:01.802Z,11.10
2023-03-25T10:26:28.258Z,11.17
2023-03-25T10:31:37.234Z,11.30
2023-03-25T10:36:49.366Z,11.27
2023-03-25T10:41:57.980Z,10.95
2023-03-25T10:47:06.216Z,11.14
2023-03-25T10:52:11.741Z,11.14
2023-03-25T10:57:21.746Z,11.20
2023-03-25T11:02:28.232Z,11.23
2023-03-25T11:07:36.714Z,11.34
2023-03-25T11:12:43.815Z,11.06
2023-03-25T11:17:49.312Z,11.09
2023-03-25T11:23:16.393Z,11.03
2023-03-25T11:28:40.809Z,10.93
2023-03-25T11:33:46.382Z,10.85
2023-03-25T11:38:58.178Z,10.99
2023-03-25T11:44:02.974Z,11.08
2023-03-25T11:54:34.680Z,11.13
2023-03-25T11:59:41.381Z,11.30
2023-03-25T12:04:58.200Z,11.56
2023-03-25T12:10:07.728Z,11.51
2023-03-25T12:21:25.677Z,11.60
2023-03-25T12:26:54.132Z,11.71
2023-03-25T12:32:12.263Z,11.78
2023-03-25T12:37:28.360Z,11.94
2023-03-25T12:42:42.428Z,11.93
2023-03-25T12:47:50.464Z,12.04
2023-03-25T12:53:00.028Z,11.95
2023-03-25T12:58:32.608Z,11.83
2023-03-25T13:04:14.377Z,11.70
2023-03-25T13:09:25.643Z,11.70
2023-03-25T13:14:34.625Z,11.50
2023-03-25T13:19:42.801Z,11.39
2023-03-25T13:24:52.756Z,11.50
2023-03-25T13:30:06.200Z,11.58
2023-03-25T13:35:16.793Z,11.49
2023-03-25T13:40:27.879Z,11.38
2023-03-25T13:45:41.149Z,11.34
2023-03-25T13:50:44.774Z,11.22
2023-03-25T13:55:55.528Z,11.11
2023-03-25T14:01:18.115Z,11.06
2023-03-25T14:06:45.341Z,11.11
2023-03-25T14:11:54.253Z,10.99
2023-03-25T14:17:01.519Z,10.96
2023-03-25T14:22:27.595Z,10.87
2023-03-25T14:27:34.283Z,10.53
2023-03-25T14:32:40.426Z,10.65
2023-03-25T14:37:44.055Z,10.48
2023-03-25T14:43:00.577Z,10.55
2023-03-25T14:48:26.167Z,10.45
2023-03-25T14:53:48.433Z,10.47
2023-03-25T15:04:29.445Z,10.13
2023-03-25T15:09:33.477Z,10.07
2023-03-25T15:14:38.576Z,9.98
2023-03-25T15:20:29.342Z,10.06
2023-03-25T15:25:54.881Z,9.89
2023-03-25T15:31:11.672Z,9.88
2023-03-25T15:36:35.567Z,9.77
2023-03-25T15:42:16.253Z,9.56
2023-03-25T15:47:39.146Z,9.46
2023-03-25T15:53:04.751Z,9.27
2023-03-25T15:58:23.275Z,9.22
2023-03-25T16:03:30.809Z,9.14
2023-03-25T16:08:38.630Z,9.17
2023-03-25T16:13:43.779Z,9.22
2023-03-25T16:19:06.697Z,9.19
2023-03-25T16:24:34.248Z,9.18
2023-03-25T16:29:41.439Z,9.20
2023-03-25T16:34:44.921Z,9.21
2023-03-25T16:39:53.556Z,9.22
2023-03-25T16:44:58.606Z,9.24
2023-03-25T16:50:04.758Z,9.25
2023-03-25T16:55:30.121Z,8.94
2023-03-25T17:00:44.084Z,9.14
2023-03-25T17:06:02.551Z,9.14
2023-03-25T17:11:09.285Z,9.03
2023-03-25T17:16:32.962Z,9.06
2023-03-25T17:22:13.148Z,9.00
2023-03-25T17:27:36.317Z,9.02
2023-03-25T17:32:45.068Z,8.94
2023-03-25T17:37:50.750Z,8.83
2023-03-25T17:42:54.688Z,8.81
2023-03-25T17:47:59.716Z,8.76
2023-03-25T17:53:03.896Z,8.69
2023-03-25T18:03:48.996Z,8.59
2023-03-25T18:08:53.175Z,8.57
2023-03-25T18:13:56.621Z,8.54
2023-03-25T18:19:01.617Z,8.48
2023-03-25T18:24:05.353Z,8.49
2023-03-25T18:29:12.955Z,8.50
2023-03-25T18:34:18.297Z,8.53
2023-03-25T18:39:24.379Z,8.42
2023-03-25T18:44:30.858Z,8.40
2023-03-25T18:49:35.936Z,8.46
2023-03-25T19:00:14.391Z,8.41
2023-03-25T19:05:19.782Z,8.40
2023-03-25T19:10:25.375Z,8.39
2023-03-25T19:15:47.538Z,8.38
2023-03-25T19:20:52.632Z,8.27
2023-03-25T19:31:19.224Z,8.36
2023-03-25T19:36:25.880Z,8.19
2023-03-25T19:41:29.409Z,8.28
2023-03-25T19:46:51.301Z,8.35
2023-03-25T19:52:14.667Z,8.34
2023-03-25T20:02:39.168Z,8.25
2023-03-25T20:07:45.838Z,8.26
2023-03-25T20:12:50.088Z,8.20
2023-03-25T20:17:55.646Z,8.15
2023-03-25T20:23:17.666Z,8.07
2023-03-25T20:28:21.149Z,7.93
2023-03-25T20:33:27.505Z,7.92
2023-03-25T20:38:32.408Z,7.91
2023-03-25T20:43:36.000Z,7.92
2023-03-25T20:48:56.885Z,7.81
2023-03-25T20:54:01.774Z,7.81
2023-03-25T20:59:05.376Z,7.70
2023-03-25T21:04:09.978Z,7.76
2023-03-25T21:09:15.041Z,7.72
2023-03-25T21:14:19.403Z,7.79
2023-03-25T21:19:22.997Z,7.52
2023-03-25T21:29:48.799Z,7.28
2023-03-25T21:34:52.516Z,7.47
2023-03-25T21:39:58.379Z,7.52
2023-03-25T21:45:02.706Z,7.47
2023-03-25T21:50:27.014Z,7.48
2023-03-25T21:55:50.600Z,7.34
2023-03-25T22:00:58.087Z,7.37
2023-03-25T22:06:04.386Z,7.45
2023-03-25T22:11:11.200Z,7.45
2023-03-25T22:16:16.876Z,7.40
2023-03-25T22:21:22.202Z,7.37
2023-03-25T22:26:28.404Z,7.46
2023-03-25T22:31:39.564Z,7.44
2023-03-25T22:36:49.564Z,7.45
2023-03-25T22:41:57.912Z,7.32
2023-03-25T22:47:21.164Z,7.16
2023-03-25T22:58:04.808Z,7.37
2023-03-25T23:03:11.253Z,7.34
2023-03-25T23:08:14.776Z,7.30
2023-03-25T23:13:19.883Z,7.26
2023-03-25T23:18:42.001Z,7.10
2023-03-25T23:24:04.737Z,7.08
2023-03-25T23:29:12.465Z,7.18
2023-03-25T23:34:17.254Z,7.17
2023-03-25T23:39:23.000Z,7.08
2023-03-25T23:44:27.924Z,7.00
2023-03-25T23:49:34.605Z,6.99
